Oklahoma City, OK (73157)

6:38 PM CST on December 22, 2014 (GMT -0600)
I-240 and Western | Change Station
CLOSE
Current Station
Personal Weather Station
Location: Oklahoma City, OK
Elevation: 1260 ft
Nearby Weather Stations

Elev 1260 ft 35.39 °N, 97.53 °W | Updated 1 second ago

Mostly Cloudy
Mostly Cloudy
52.3 °F
Feels Like 52.3 °F
N
0.0
Wind Variable Wind from NW
Gusts 0.0 mph

Today
High -- | Low -- °F
--% Chance of Precip.
Yesterday
High -- | Low -- °F
Precip. -- in
7:36 AM 5:21 PM
New Moon, 1% visible
Pressure 29.63 in
Visibility 10.0 miles
Clouds Few 13000 ft
Mostly Cloudy 18000 ft
Mostly Cloudy 25000 ft
Dew Point 14 °F
Humidity 21%
Rainfall 0.00 in
Snow Depth Not available.
UV 0 out of 12
Pollen 9.30 out of 12
Air Quality Not available.
Flu Activity Not available.
METAR KOKC 222352Z 33010KT 10SM FEW130 BKN180 BKN250 12/02 A2963 RMK AO2 SLP032 T01170022 10144 20106 51012

More Conditions Fewer Conditions

Pressure 29.63 in
Visibility 10.0 miles
Clouds Few 13000 ft
Mostly Cloudy 18000 ft
Mostly Cloudy 25000 ft
Dew Point 14 °F
Humidity 21%
Rainfall 0.00 in
Snow Depth Not available.
UV 0 out of 12
Pollen 9.30 out of 12
Air Quality Not available.
Flu Activity Not available.
METAR KOKC 222352Z 33010KT 10SM FEW130 BKN180 BKN250 12/02 A2963 RMK AO2 SLP032 T01170022 10144 20106 51012

More Conditions Fewer Conditions

10-Day Weather Forecast

Almanac

Astronomy

Dec. 22, 2014 Rise Set
Actual Time
Civil Twilight
Nautical Twilight
Astronomical Twilight
Moon
Length of Visible Light
Length of Day
Tomorrow will be .
, % of the Moon is Illuminated

Today's Extremes

State Highs State Lows

Community

WunderPhotos

Upload Photos

1,779,738 photos uploaded!

WunderBlogs® & News

Nearby

Air Quality

  Air Quality AQ Index Pollutant
Not available.

Snow Depth

Station Depth Elevation

Earthquake Activity

City Distance Mag. Time & Date
Minimum magnitude displayed is 2.5.

Coastal Water Temperatures

Place Temperature

Nearby Weather Stations